Newburgh, IN (47630)

9:52 PM CST on November 23, 2014 (GMT -0600)
Summer Creek | Change Station
CLOSE
Current Station
Personal Weather Station
Location: Newburgh, IN
Elevation: 387 ft
Nearby Weather Stations
Active Advisory: Wind Advisory

Elev 387 ft 37.97 °N, 87.37 °W | Updated 26 seconds ago

Overcast
Overcast
58.9 °F
Feels Like 58.9 °F
N
5.0
Wind Variable Wind from WSW
Gusts 10.0 mph

Today
High -- | Low -- °F
--% Chance of Precip.
Yesterday
High -- | Low -- °F
Precip. -- in
6:38 AM 4:32 PM
Waxing Crescent, 3% visible
Pressure 29.29 in
Visibility 10.0 miles
Clouds Overcast 1200 ft
Dew Point 57 °F
Humidity 92%
Rainfall 1.21 in
Snow Depth Not available.
UV 0 out of 12
Pollen .30 out of 12
Air Quality Not available.
Flu Activity Not available.
SPECI KEVV 240325Z 23018KT 10SM OVC012 15/13 A2929 RMK AO2 RAE12 P0001 T01500128 $

More Conditions Fewer Conditions

Pressure 29.29 in
Visibility 10.0 miles
Clouds Overcast 1200 ft
Dew Point 57 °F
Humidity 92%
Rainfall 1.21 in
Snow Depth Not available.
UV 0 out of 12
Pollen .30 out of 12
Air Quality Not available.
Flu Activity Not available.
SPECI KEVV 240325Z 23018KT 10SM OVC012 15/13 A2929 RMK AO2 RAE12 P0001 T01500128 $

More Conditions Fewer Conditions

10-Day Weather Forecast

Almanac

Astronomy

Nov. 23, 2014 Rise Set
Actual Time
Civil Twilight
Nautical Twilight
Astronomical Twilight
Moon
Length of Visible Light
Length of Day
Tomorrow will be .
, % of the Moon is Illuminated

Today's Extremes

State Highs State Lows

Community

WunderPhotos

Upload Photos

1,773,262 photos uploaded!

WunderBlogs® & News

Nearby

Air Quality

  Air Quality AQ Index Pollutant
Not available.

Snow Depth

Station Depth Elevation

Earthquake Activity

City Distance Mag. Time & Date
Minimum magnitude displayed is 2.5.

Coastal Water Temperatures

Place Temperature

Nearby Weather Stations